Главная страница
METAR-TAF:

METAR-TAF

Аэропорты :

Алтуна, Пенсильвания, США

широта: 40-18-00N, долгота: 078-19-01W, высота над уровнем моря: 458 м

Текущие метеонаблюдения

Эта сводка был подготовлена 49 минут назад, в 08:53 UTC
Ветер 5 Узел от восточный
Температура 14°C
Влажность 88%
Давление 1020 hPa
Видимость: 16.1 км
небольшая облачность на высоте 4300 фута

METAR: KAOO 060853Z AUTO 08005KT 10SM FEW043 14/12 A3013 RMK AO2 SLP197 T01440122 52001

Время: 05:42 (09:42 UTC)

Прогноз

Эта сводка был подготовлена 27 минут назад, в 09:15 UTC
Прогноз действительный с 06-го 09 UTC до 07-го 06 UTC
Ветер 5 Узел от восточный
Видимость: 10 км
Отдельные облака на высоте 5000 фута
С 06-го 1800 UTC
Ветер 5 Узел от восточный
Видимость: 10 км
Сплошная облачность на высоте 3500 фута
С 07-го 0400 UTC
Ветер 2 Узел от юго-восточный
Видимость: 10 км
Сплошная облачность на высоте 1500 фута

TAF: KAOO 060915Z 0609/0706 08005KT P6SM SCT050 FM061800 10005KT P6SM OVC035 FM070400 13002KT P6SM OVC015

Метеонаблюдения и прогнозы для более 4000 аэропортов (сводки METAR и TAF).

Имеющиеся станции представлены на карте желтыми и красными точками.

Чтобы увидеть название станции, наведите на нее мышь.

Затем щелкните, чтобы увидеть метеонаблюдения и метеопрогнозы.

Управление картой: чтобы увеличить масштаб, щелкните зеленые кнопки с черным крестиком; чтобы уменьшить масштаб, щелкните зеленую кнопку с тире; для просмотра соседних карт щелкайте зеленые стрелки.


METAR-TAF: